Quecreek, Pennsylvania
Current Conditions -  °F | °C
As of 8:54 PM on Friday 21 Nov 2014 (Local Time) from KJST Reporting Station
Clear Clear  
Wind Chill: 11°   Ceiling: Unl
Heat Index: 18°   Visibility: 10mi
Dew Point:   Wind: 5mph
Humidity: 60%   Direction: 220°SW
Pressure: 30.37"   Gusts: NA
Location:  40.09°N, 79.08°W
Report Text: KJST 220154Z AUTO 22004KT 10SM CLR M08/M14 A3037 RMK AO2 SLP327 T10781144
Loading
Personal Weather Stations






























Interactive Weather Map New forecast layout! Learn more

10-Day Weather Forecast

Advertisements
Track Severe Weather on mobile